sensor_id;sensor_type;location;lat;lon;timestamp;pressure;altitude;pressure_sealevel;temperature
44429;BMP180;30134;47.866;-4.222;2022-10-15T00:00:38;100731.00;;;26.40
44429;BMP180;30134;47.866;-4.222;2022-10-15T00:03:04;100732.00;;;26.50
44429;BMP180;30134;47.866;-4.222;2022-10-15T00:05:30;100738.00;;;26.40
44429;BMP180;30134;47.866;-4.222;2022-10-15T00:07:56;100746.00;;;26.50
44429;BMP180;30134;47.866;-4.222;2022-10-15T00:10:22;100748.00;;;26.40
44429;BMP180;30134;47.866;-4.222;2022-10-15T00:12:48;100748.00;;;26.50
44429;BMP180;30134;47.866;-4.222;2022-10-15T00:15:15;100742.00;;;26.50
44429;BMP180;30134;47.866;-4.222;2022-10-15T00:17:41;100745.00;;;26.40
44429;BMP180;30134;47.866;-4.222;2022-10-15T00:20:10;100747.00;;;26.50
44429;BMP180;30134;47.866;-4.222;2022-10-15T00:22:37;100760.00;;;26.50
44429;BMP180;30134;47.866;-4.222;2022-10-15T00:25:04;100765.00;;;26.40
44429;BMP180;30134;47.866;-4.222;2022-10-15T00:27:30;100763.00;;;26.40
44429;BMP180;30134;47.866;-4.222;2022-10-15T00:29:57;100765.00;;;26.40
44429;BMP180;30134;47.866;-4.222;2022-10-15T00:32:25;100763.00;;;26.40
44429;BMP180;30134;47.866;-4.222;2022-10-15T00:34:51;100766.00;;;26.40
44429;BMP180;30134;47.866;-4.222;2022-10-15T00:37:17;100770.00;;;26.40
44429;BMP180;30134;47.866;-4.222;2022-10-15T00:39:43;100775.00;;;26.40
44429;BMP180;30134;47.866;-4.222;2022-10-15T00:42:10;100778.00;;;26.50
44429;BMP180;30134;47.866;-4.222;2022-10-15T00:47:26;100780.00;;;26.50
44429;BMP180;30134;47.866;-4.222;2022-10-15T00:50:24;100778.00;;;26.40
44429;BMP180;30134;47.866;-4.222;2022-10-15T00:53:05;100785.00;;;26.40
44429;BMP180;30134;47.866;-4.222;2022-10-15T00:55:41;100787.00;;;26.40
44429;BMP180;30134;47.866;-4.222;2022-10-15T00:58:15;100791.00;;;26.40
44429;BMP180;30134;47.866;-4.222;2022-10-15T01:00:41;100791.00;;;26.40
44429;BMP180;30134;47.866;-4.222;2022-10-15T01:03:08;100793.00;;;26.40
44429;BMP180;30134;47.866;-4.222;2022-10-15T01:05:37;100796.00;;;26.40
44429;BMP180;30134;47.866;-4.222;2022-10-15T01:08:04;100789.00;;;26.40
44429;BMP180;30134;47.866;-4.222;2022-10-15T01:11:04;100790.00;;;26.40
44429;BMP180;30134;47.866;-4.222;2022-10-15T01:13:48;100789.00;;;26.40
44429;BMP180;30134;47.866;-4.222;2022-10-15T01:16:59;100788.00;;;26.40
44429;BMP180;30134;47.866;-4.222;2022-10-15T01:30:52;100808.00;;;26.40
44429;BMP180;30134;47.866;-4.222;2022-10-15T01:33:40;100801.00;;;26.40
44429;BMP180;30134;47.866;-4.222;2022-10-15T01:36:19;100815.00;;;26.40
44429;BMP180;30134;47.866;-4.222;2022-10-15T01:41:48;100809.00;;;26.40
44429;BMP180;30134;47.866;-4.222;2022-10-15T01:44:35;100812.00;;;26.40
44429;BMP180;30134;47.866;-4.222;2022-10-15T01:47:07;100812.00;;;26.40
44429;BMP180;30134;47.866;-4.222;2022-10-15T01:49:42;100812.00;;;26.40
44429;BMP180;30134;47.866;-4.222;2022-10-15T01:52:18;100818.00;;;26.40
44429;BMP180;30134;47.866;-4.222;2022-10-15T01:54:46;100815.00;;;26.40
44429;BMP180;30134;47.866;-4.222;2022-10-15T01:57:15;100818.00;;;26.40
44429;BMP180;30134;47.866;-4.222;2022-10-15T01:59:42;100815.00;;;26.40
44429;BMP180;30134;47.866;-4.222;2022-10-15T02:02:08;100820.00;;;26.40
44429;BMP180;30134;47.866;-4.222;2022-10-15T02:04:34;100826.00;;;26.40
44429;BMP180;30134;47.866;-4.222;2022-10-15T02:16:13;100817.00;;;26.40
44429;BMP180;30134;47.866;-4.222;2022-10-15T02:19:11;100824.00;;;26.40
44429;BMP180;30134;47.866;-4.222;2022-10-15T02:24:57;100822.00;;;26.40
44429;BMP180;30134;47.866;-4.222;2022-10-15T02:27:25;100820.00;;;26.40
44429;BMP180;30134;47.866;-4.222;2022-10-15T02:29:52;100822.00;;;26.40
44429;BMP180;30134;47.866;-4.222;2022-10-15T02:32:20;100826.00;;;26.40
44429;BMP180;30134;47.866;-4.222;2022-10-15T02:34:48;100821.00;;;26.40
44429;BMP180;30134;47.866;-4.222;2022-10-15T02:37:19;100825.00;;;26.40
44429;BMP180;30134;47.866;-4.222;2022-10-15T02:39:45;100820.00;;;26.40
44429;BMP180;30134;47.866;-4.222;2022-10-15T02:42:13;100812.00;;;26.40
44429;BMP180;30134;47.866;-4.222;2022-10-15T02:44:39;100819.00;;;26.40
44429;BMP180;30134;47.866;-4.222;2022-10-15T02:47:05;100819.00;;;26.40
44429;BMP180;30134;47.866;-4.222;2022-10-15T02:49:31;100811.00;;;26.40
44429;BMP180;30134;47.866;-4.222;2022-10-15T02:51:57;100818.00;;;26.40
44429;BMP180;30134;47.866;-4.222;2022-10-15T02:54:23;100803.00;;;26.40
44429;BMP180;30134;47.866;-4.222;2022-10-15T02:56:49;100810.00;;;26.40
44429;BMP180;30134;47.866;-4.222;2022-10-15T02:59:15;100811.00;;;26.40
44429;BMP180;30134;47.866;-4.222;2022-10-15T03:01:43;100812.00;;;26.40
44429;BMP180;30134;47.866;-4.222;2022-10-15T03:04:09;100815.00;;;26.40
44429;BMP180;30134;47.866;-4.222;2022-10-15T03:06:35;100817.00;;;26.40
44429;BMP180;30134;47.866;-4.222;2022-10-15T03:09:01;100817.00;;;26.40
44429;BMP180;30134;47.866;-4.222;2022-10-15T03:11:26;100813.00;;;26.40
44429;BMP180;30134;47.866;-4.222;2022-10-15T03:13:52;100814.00;;;26.40
44429;BMP180;30134;47.866;-4.222;2022-10-15T03:16:18;100817.00;;;26.40
44429;BMP180;30134;47.866;-4.222;2022-10-15T03:18:44;100816.00;;;26.40
44429;BMP180;30134;47.866;-4.222;2022-10-15T03:21:10;100814.00;;;26.40
44429;BMP180;30134;47.866;-4.222;2022-10-15T03:23:36;100816.00;;;26.40
44429;BMP180;30134;47.866;-4.222;2022-10-15T03:26:05;100820.00;;;26.40
44429;BMP180;30134;47.866;-4.222;2022-10-15T03:28:31;100815.00;;;26.40
44429;BMP180;30134;47.866;-4.222;2022-10-15T03:30:57;100812.00;;;26.40
44429;BMP180;30134;47.866;-4.222;2022-10-15T03:33:23;100811.00;;;26.40
44429;BMP180;30134;47.866;-4.222;2022-10-15T03:35:48;100805.00;;;26.40
44429;BMP180;30134;47.866;-4.222;2022-10-15T03:38:14;100804.00;;;26.40
44429;BMP180;30134;47.866;-4.222;2022-10-15T03:40:42;100808.00;;;26.40
44429;BMP180;30134;47.866;-4.222;2022-10-15T03:43:08;100810.00;;;26.40
44429;BMP180;30134;47.866;-4.222;2022-10-15T03:45:34;100810.00;;;26.40
44429;BMP180;30134;47.866;-4.222;2022-10-15T03:48:00;100807.00;;;26.40
44429;BMP180;30134;47.866;-4.222;2022-10-15T03:50:26;100813.00;;;26.40
44429;BMP180;30134;47.866;-4.222;2022-10-15T03:52:51;100811.00;;;26.40
44429;BMP180;30134;47.866;-4.222;2022-10-15T03:55:17;100814.00;;;26.40
44429;BMP180;30134;47.866;-4.222;2022-10-15T03:57:43;100820.00;;;26.40
44429;BMP180;30134;47.866;-4.222;2022-10-15T04:00:12;100822.00;;;26.40
44429;BMP180;30134;47.866;-4.222;2022-10-15T04:02:39;100827.00;;;26.40
44429;BMP180;30134;47.866;-4.222;2022-10-15T04:05:05;100823.00;;;26.40
44429;BMP180;30134;47.866;-4.222;2022-10-15T04:07:31;100816.00;;;26.40
44429;BMP180;30134;47.866;-4.222;2022-10-15T04:09:57;100813.00;;;26.40
44429;BMP180;30134;47.866;-4.222;2022-10-15T04:12:23;100817.00;;;26.40
44429;BMP180;30134;47.866;-4.222;2022-10-15T04:14:49;100817.00;;;26.40
44429;BMP180;30134;47.866;-4.222;2022-10-15T04:17:15;100813.00;;;26.40
44429;BMP180;30134;47.866;-4.222;2022-10-15T04:19:41;100818.00;;;26.40
44429;BMP180;30134;47.866;-4.222;2022-10-15T04:22:07;100819.00;;;26.40
44429;BMP180;30134;47.866;-4.222;2022-10-15T04:24:33;100820.00;;;26.40
44429;BMP180;30134;47.866;-4.222;2022-10-15T04:26:59;100829.00;;;26.40
44429;BMP180;30134;47.866;-4.222;2022-10-15T04:29:25;100823.00;;;26.40
44429;BMP180;30134;47.866;-4.222;2022-10-15T04:31:51;100821.00;;;26.40
44429;BMP180;30134;47.866;-4.222;2022-10-15T04:34:17;100825.00;;;26.40
44429;BMP180;30134;47.866;-4.222;2022-10-15T04:36:43;100827.00;;;26.40
44429;BMP180;30134;47.866;-4.222;2022-10-15T04:39:09;100825.00;;;26.40
44429;BMP180;30134;47.866;-4.222;2022-10-15T04:41:37;100836.00;;;26.30
44429;BMP180;30134;47.866;-4.222;2022-10-15T04:44:03;100838.00;;;26.40
44429;BMP180;30134;47.866;-4.222;2022-10-15T04:46:30;100844.00;;;26.40
44429;BMP180;30134;47.866;-4.222;2022-10-15T04:48:56;100834.00;;;26.40
44429;BMP180;30134;47.866;-4.222;2022-10-15T04:51:25;100843.00;;;26.40
44429;BMP180;30134;47.866;-4.222;2022-10-15T04:53:52;100844.00;;;26.40
44429;BMP180;30134;47.866;-4.222;2022-10-15T04:56:20;100832.00;;;26.30
44429;BMP180;30134;47.866;-4.222;2022-10-15T04:58:47;100839.00;;;26.30
44429;BMP180;30134;47.866;-4.222;2022-10-15T05:01:18;100835.00;;;26.30
44429;BMP180;30134;47.866;-4.222;2022-10-15T05:03:47;100837.00;;;26.30
44429;BMP180;30134;47.866;-4.222;2022-10-15T05:06:17;100833.00;;;26.30
44429;BMP180;30134;47.866;-4.222;2022-10-15T05:08:44;100838.00;;;26.30
44429;BMP180;30134;47.866;-4.222;2022-10-15T05:11:23;100834.00;;;26.30
44429;BMP180;30134;47.866;-4.222;2022-10-15T05:13:51;100838.00;;;26.30
44429;BMP180;30134;47.866;-4.222;2022-10-15T05:16:20;100836.00;;;26.30
44429;BMP180;30134;47.866;-4.222;2022-10-15T05:18:53;100832.00;;;26.30
44429;BMP180;30134;47.866;-4.222;2022-10-15T05:21:20;100833.00;;;26.30
44429;BMP180;30134;47.866;-4.222;2022-10-15T05:23:46;100843.00;;;26.30
44429;BMP180;30134;47.866;-4.222;2022-10-15T05:26:19;100837.00;;;26.30
44429;BMP180;30134;47.866;-4.222;2022-10-15T05:28:45;100850.00;;;26.30
44429;BMP180;30134;47.866;-4.222;2022-10-15T05:31:17;100850.00;;;26.30
44429;BMP180;30134;47.866;-4.222;2022-10-15T05:33:44;100843.00;;;26.30
44429;BMP180;30134;47.866;-4.222;2022-10-15T05:36:14;100835.00;;;26.30
44429;BMP180;30134;47.866;-4.222;2022-10-15T05:38:46;100837.00;;;26.30
44429;BMP180;30134;47.866;-4.222;2022-10-15T05:41:12;100844.00;;;26.30
44429;BMP180;30134;47.866;-4.222;2022-10-15T05:43:39;100839.00;;;26.30
44429;BMP180;30134;47.866;-4.222;2022-10-15T05:46:05;100837.00;;;26.30
44429;BMP180;30134;47.866;-4.222;2022-10-15T05:48:31;100844.00;;;26.30
44429;BMP180;30134;47.866;-4.222;2022-10-15T05:51:10;100847.00;;;26.30
44429;BMP180;30134;47.866;-4.222;2022-10-15T05:53:37;100855.00;;;26.30
44429;BMP180;30134;47.866;-4.222;2022-10-15T05:56:05;100853.00;;;26.30
44429;BMP180;30134;47.866;-4.222;2022-10-15T05:58:33;100851.00;;;26.30
44429;BMP180;30134;47.866;-4.222;2022-10-15T06:01:02;100847.00;;;26.30
44429;BMP180;30134;47.866;-4.222;2022-10-15T06:03:29;100846.00;;;26.30
44429;BMP180;30134;47.866;-4.222;2022-10-15T06:05:55;100853.00;;;26.30
44429;BMP180;30134;47.866;-4.222;2022-10-15T06:08:21;100845.00;;;26.30
44429;BMP180;30134;47.866;-4.222;2022-10-15T06:10:48;100857.00;;;26.30
44429;BMP180;30134;47.866;-4.222;2022-10-15T06:13:14;100849.00;;;26.30
44429;BMP180;30134;47.866;-4.222;2022-10-15T06:15:45;100849.00;;;26.30
44429;BMP180;30134;47.866;-4.222;2022-10-15T06:18:12;100839.00;;;26.30
44429;BMP180;30134;47.866;-4.222;2022-10-15T06:20:42;100836.00;;;26.30
44429;BMP180;30134;47.866;-4.222;2022-10-15T06:23:09;100845.00;;;26.30
44429;BMP180;30134;47.866;-4.222;2022-10-15T06:25:36;100856.00;;;26.30
44429;BMP180;30134;47.866;-4.222;2022-10-15T06:28:05;100859.00;;;26.30
44429;BMP180;30134;47.866;-4.222;2022-10-15T06:30:32;100861.00;;;26.30
44429;BMP180;30134;47.866;-4.222;2022-10-15T06:32:58;100864.00;;;26.30
44429;BMP180;30134;47.866;-4.222;2022-10-15T06:35:25;100859.00;;;26.30
44429;BMP180;30134;47.866;-4.222;2022-10-15T06:37:52;100877.00;;;26.30
44429;BMP180;30134;47.866;-4.222;2022-10-15T06:40:20;100877.00;;;26.30
44429;BMP180;30134;47.866;-4.222;2022-10-15T06:42:46;100879.00;;;26.30
44429;BMP180;30134;47.866;-4.222;2022-10-15T06:45:13;100883.00;;;26.30
44429;BMP180;30134;47.866;-4.222;2022-10-15T06:47:40;100900.00;;;26.30
44429;BMP180;30134;47.866;-4.222;2022-10-15T06:50:06;100895.00;;;26.30
44429;BMP180;30134;47.866;-4.222;2022-10-15T06:52:32;100899.00;;;26.30
44429;BMP180;30134;47.866;-4.222;2022-10-15T06:54:59;100885.00;;;26.30
44429;BMP180;30134;47.866;-4.222;2022-10-15T06:57:27;100894.00;;;26.30
44429;BMP180;30134;47.866;-4.222;2022-10-15T06:59:53;100901.00;;;26.30
44429;BMP180;30134;47.866;-4.222;2022-10-15T07:02:19;100898.00;;;26.30
44429;BMP180;30134;47.866;-4.222;2022-10-15T07:04:46;100907.00;;;26.30
44429;BMP180;30134;47.866;-4.222;2022-10-15T07:07:12;100897.00;;;26.30
44429;BMP180;30134;47.866;-4.222;2022-10-15T07:09:39;100899.00;;;26.30
44429;BMP180;30134;47.866;-4.222;2022-10-15T07:12:05;100905.00;;;26.30
44429;BMP180;30134;47.866;-4.222;2022-10-15T07:14:31;100902.00;;;26.30
44429;BMP180;30134;47.866;-4.222;2022-10-15T07:16:58;100891.00;;;26.30
44429;BMP180;30134;47.866;-4.222;2022-10-15T07:19:27;100889.00;;;26.30
44429;BMP180;30134;47.866;-4.222;2022-10-15T07:21:54;100894.00;;;26.30
44429;BMP180;30134;47.866;-4.222;2022-10-15T07:24:20;100906.00;;;26.30
44429;BMP180;30134;47.866;-4.222;2022-10-15T07:26:47;100912.00;;;26.30
44429;BMP180;30134;47.866;-4.222;2022-10-15T07:29:13;100915.00;;;26.30
44429;BMP180;30134;47.866;-4.222;2022-10-15T07:31:39;100914.00;;;26.30
44429;BMP180;30134;47.866;-4.222;2022-10-15T07:34:05;100914.00;;;26.30
44429;BMP180;30134;47.866;-4.222;2022-10-15T07:36:31;100914.00;;;26.30
44429;BMP180;30134;47.866;-4.222;2022-10-15T07:38:57;100918.00;;;26.30
44429;BMP180;30134;47.866;-4.222;2022-10-15T07:41:22;100921.00;;;26.20
44429;BMP180;30134;47.866;-4.222;2022-10-15T07:43:51;100917.00;;;26.10
44429;BMP180;30134;47.866;-4.222;2022-10-15T07:46:18;100917.00;;;26.10
44429;BMP180;30134;47.866;-4.222;2022-10-15T07:48:44;100924.00;;;26.20
44429;BMP180;30134;47.866;-4.222;2022-10-15T07:51:11;100918.00;;;26.20
44429;BMP180;30134;47.866;-4.222;2022-10-15T07:53:37;100922.00;;;26.20
44429;BMP180;30134;47.866;-4.222;2022-10-15T07:56:06;100916.00;;;26.20
44429;BMP180;30134;47.866;-4.222;2022-10-15T07:58:34;100914.00;;;26.20
44429;BMP180;30134;47.866;-4.222;2022-10-15T08:01:01;100918.00;;;26.20
44429;BMP180;30134;47.866;-4.222;2022-10-15T08:03:28;100920.00;;;26.20
44429;BMP180;30134;47.866;-4.222;2022-10-15T08:05:55;100920.00;;;26.20
44429;BMP180;30134;47.866;-4.222;2022-10-15T08:08:21;100922.00;;;26.30
44429;BMP180;30134;47.866;-4.222;2022-10-15T08:10:48;100930.00;;;26.30
44429;BMP180;30134;47.866;-4.222;2022-10-15T08:13:13;100934.00;;;26.30
44429;BMP180;30134;47.866;-4.222;2022-10-15T08:15:41;100931.00;;;26.30
44429;BMP180;30134;47.866;-4.222;2022-10-15T08:18:08;100935.00;;;26.30
44429;BMP180;30134;47.866;-4.222;2022-10-15T08:20:38;100933.00;;;26.30
44429;BMP180;30134;47.866;-4.222;2022-10-15T08:23:10;100929.00;;;26.40
44429;BMP180;30134;47.866;-4.222;2022-10-15T08:25:38;100927.00;;;26.40
44429;BMP180;30134;47.866;-4.222;2022-10-15T08:28:05;100939.00;;;26.40
44429;BMP180;30134;47.866;-4.222;2022-10-15T08:30:31;100938.00;;;26.40
44429;BMP180;30134;47.866;-4.222;2022-10-15T08:32:57;100936.00;;;26.40
44429;BMP180;30134;47.866;-4.222;2022-10-15T08:35:24;100937.00;;;26.40
44429;BMP180;30134;47.866;-4.222;2022-10-15T08:37:53;100935.00;;;26.40
44429;BMP180;30134;47.866;-4.222;2022-10-15T08:40:21;100951.00;;;26.40
44429;BMP180;30134;47.866;-4.222;2022-10-15T08:42:47;100948.00;;;26.40
44429;BMP180;30134;47.866;-4.222;2022-10-15T08:45:42;100949.00;;;26.50
44429;BMP180;30134;47.866;-4.222;2022-10-15T08:48:46;100950.00;;;26.40
44429;BMP180;30134;47.866;-4.222;2022-10-15T08:51:29;100946.00;;;26.50
44429;BMP180;30134;47.866;-4.222;2022-10-15T08:54:14;100947.00;;;26.50
44429;BMP180;30134;47.866;-4.222;2022-10-15T08:56:50;100958.00;;;26.50
44429;BMP180;30134;47.866;-4.222;2022-10-15T08:59:51;100955.00;;;26.50
44429;BMP180;30134;47.866;-4.222;2022-10-15T09:02:34;100962.00;;;26.50
44429;BMP180;30134;47.866;-4.222;2022-10-15T09:07:52;100959.00;;;26.50
44429;BMP180;30134;47.866;-4.222;2022-10-15T09:10:46;100957.00;;;26.50
44429;BMP180;30134;47.866;-4.222;2022-10-15T09:13:39;100955.00;;;26.50
44429;BMP180;30134;47.866;-4.222;2022-10-15T09:16:37;100956.00;;;26.50
44429;BMP180;30134;47.866;-4.222;2022-10-15T09:19:12;100958.00;;;26.50
44429;BMP180;30134;47.866;-4.222;2022-10-15T09:21:40;100958.00;;;26.50
44429;BMP180;30134;47.866;-4.222;2022-10-15T09:24:12;100957.00;;;26.50
44429;BMP180;30134;47.866;-4.222;2022-10-15T09:30:43;100970.00;;;26.50
44429;BMP180;30134;47.866;-4.222;2022-10-15T09:33:39;100966.00;;;26.50
44429;BMP180;30134;47.866;-4.222;2022-10-15T09:44:54;100977.00;;;26.50
44429;BMP180;30134;47.866;-4.222;2022-10-15T09:49:53;100978.00;;;26.60
44429;BMP180;30134;47.866;-4.222;2022-10-15T09:53:01;100976.00;;;26.60
44429;BMP180;30134;47.866;-4.222;2022-10-15T09:56:10;100973.00;;;26.60
44429;BMP180;30134;47.866;-4.222;2022-10-15T10:01:21;100985.00;;;26.60
44429;BMP180;30134;47.866;-4.222;2022-10-15T10:04:10;100972.00;;;26.60
44429;BMP180;30134;47.866;-4.222;2022-10-15T10:06:53;100982.00;;;26.60
44429;BMP180;30134;47.866;-4.222;2022-10-15T10:09:53;100969.00;;;26.60
44429;BMP180;30134;47.866;-4.222;2022-10-15T10:12:36;100971.00;;;26.60
44429;BMP180;30134;47.866;-4.222;2022-10-15T10:15:38;100976.00;;;26.60
44429;BMP180;30134;47.866;-4.222;2022-10-15T10:18:26;100979.00;;;26.60
44429;BMP180;30134;47.866;-4.222;2022-10-15T10:21:27;100973.00;;;26.60
44429;BMP180;30134;47.866;-4.222;2022-10-15T10:24:28;100978.00;;;26.60
44429;BMP180;30134;47.866;-4.222;2022-10-15T10:27:26;100980.00;;;26.60
44429;BMP180;30134;47.866;-4.222;2022-10-15T10:30:02;100974.00;;;26.60
44429;BMP180;30134;47.866;-4.222;2022-10-15T10:32:34;100967.00;;;26.60
44429;BMP180;30134;47.866;-4.222;2022-10-15T10:35:23;100970.00;;;26.60
44429;BMP180;30134;47.866;-4.222;2022-10-15T10:37:56;100980.00;;;26.60
44429;BMP180;30134;47.866;-4.222;2022-10-15T10:40:35;100979.00;;;26.60
44429;BMP180;30134;47.866;-4.222;2022-10-15T10:43:27;100975.00;;;26.60
44429;BMP180;30134;47.866;-4.222;2022-10-15T10:48:49;100984.00;;;26.60
44429;BMP180;30134;47.866;-4.222;2022-10-15T10:56:23;100985.00;;;26.60
44429;BMP180;30134;47.866;-4.222;2022-10-15T10:59:22;100975.00;;;26.60
44429;BMP180;30134;47.866;-4.222;2022-10-15T11:01:50;100977.00;;;26.60
44429;BMP180;30134;47.866;-4.222;2022-10-15T11:04:33;100977.00;;;26.60
44429;BMP180;30134;47.866;-4.222;2022-10-15T11:27:19;100975.00;;;26.60
44429;BMP180;30134;47.866;-4.222;2022-10-15T11:41:33;100964.00;;;26.60
44429;BMP180;30134;47.866;-4.222;2022-10-15T11:44:47;100964.00;;;26.60
44429;BMP180;30134;47.866;-4.222;2022-10-15T11:47:35;100959.00;;;26.60
44429;BMP180;30134;47.866;-4.222;2022-10-15T11:50:27;100957.00;;;26.60
44429;BMP180;30134;47.866;-4.222;2022-10-15T11:56:20;100951.00;;;26.60
44429;BMP180;30134;47.866;-4.222;2022-10-15T12:01:49;100949.00;;;26.60
44429;BMP180;30134;47.866;-4.222;2022-10-15T12:04:41;100949.00;;;26.60
44429;BMP180;30134;47.866;-4.222;2022-10-15T12:07:15;100936.00;;;26.60
44429;BMP180;30134;47.866;-4.222;2022-10-15T12:09:47;100935.00;;;26.60
44429;BMP180;30134;47.866;-4.222;2022-10-15T12:18:30;100938.00;;;26.60
44429;BMP180;30134;47.866;-4.222;2022-10-15T12:21:00;100935.00;;;26.60
44429;BMP180;30134;47.866;-4.222;2022-10-15T12:26:31;100937.00;;;26.60
44429;BMP180;30134;47.866;-4.222;2022-10-15T12:29:01;100932.00;;;26.60
44429;BMP180;30134;47.866;-4.222;2022-10-15T12:31:51;100930.00;;;26.70
44429;BMP180;30134;47.866;-4.222;2022-10-15T12:34:35;100929.00;;;26.70
44429;BMP180;30134;47.866;-4.222;2022-10-15T12:37:17;100930.00;;;26.70
44429;BMP180;30134;47.866;-4.222;2022-10-15T12:39:44;100931.00;;;26.60
44429;BMP180;30134;47.866;-4.222;2022-10-15T12:42:37;100938.00;;;26.70
44429;BMP180;30134;47.866;-4.222;2022-10-15T12:45:16;100930.00;;;26.70
44429;BMP180;30134;47.866;-4.222;2022-10-15T12:50:34;100941.00;;;26.60
44429;BMP180;30134;47.866;-4.222;2022-10-15T12:58:39;100927.00;;;26.60
44429;BMP180;30134;47.866;-4.222;2022-10-15T13:09:26;100915.00;;;26.70
44429;BMP180;30134;47.866;-4.222;2022-10-15T13:11:55;100929.00;;;26.70
44429;BMP180;30134;47.866;-4.222;2022-10-15T13:14:46;100937.00;;;26.70
44429;BMP180;30134;47.866;-4.222;2022-10-15T13:17:18;100922.00;;;26.70
44429;BMP180;30134;47.866;-4.222;2022-10-15T13:20:02;100915.00;;;26.70
44429;BMP180;30134;47.866;-4.222;2022-10-15T13:22:32;100906.00;;;26.80
44429;BMP180;30134;47.866;-4.222;2022-10-15T13:24:58;100891.00;;;26.80
44429;BMP180;30134;47.866;-4.222;2022-10-15T13:27:34;100896.00;;;26.80
44429;BMP180;30134;47.866;-4.222;2022-10-15T13:30:04;100896.00;;;26.80
44429;BMP180;30134;47.866;-4.222;2022-10-15T13:32:35;100896.00;;;26.80
44429;BMP180;30134;47.866;-4.222;2022-10-15T13:35:08;100894.00;;;26.80
44429;BMP180;30134;47.866;-4.222;2022-10-15T13:37:36;100889.00;;;26.80
44429;BMP180;30134;47.866;-4.222;2022-10-15T13:40:04;100889.00;;;26.80
44429;BMP180;30134;47.866;-4.222;2022-10-15T13:42:31;100893.00;;;26.90
44429;BMP180;30134;47.866;-4.222;2022-10-15T13:45:16;100890.00;;;26.90
44429;BMP180;30134;47.866;-4.222;2022-10-15T13:47:50;100896.00;;;26.90
44429;BMP180;30134;47.866;-4.222;2022-10-15T13:50:29;100889.00;;;26.90
44429;BMP180;30134;47.866;-4.222;2022-10-15T13:53:30;100879.00;;;26.90
44429;BMP180;30134;47.866;-4.222;2022-10-15T13:56:01;100881.00;;;26.90
44429;BMP180;30134;47.866;-4.222;2022-10-15T13:58:32;100882.00;;;26.90
44429;BMP180;30134;47.866;-4.222;2022-10-15T14:01:21;100893.00;;;26.90
44429;BMP180;30134;47.866;-4.222;2022-10-15T14:03:56;100882.00;;;27.00
44429;BMP180;30134;47.866;-4.222;2022-10-15T14:06:32;100880.00;;;27.00
44429;BMP180;30134;47.866;-4.222;2022-10-15T14:09:20;100883.00;;;27.00
44429;BMP180;30134;47.866;-4.222;2022-10-15T14:11:53;100881.00;;;27.00
44429;BMP180;30134;47.866;-4.222;2022-10-15T14:14:41;100880.00;;;27.00
44429;BMP180;30134;47.866;-4.222;2022-10-15T14:17:22;100880.00;;;27.00
44429;BMP180;30134;47.866;-4.222;2022-10-15T14:20:03;100882.00;;;27.00
44429;BMP180;30134;47.866;-4.222;2022-10-15T14:22:31;100886.00;;;27.00
44429;BMP180;30134;47.866;-4.222;2022-10-15T14:24:57;100881.00;;;27.00
44429;BMP180;30134;47.866;-4.222;2022-10-15T14:27:28;100871.00;;;27.00
44429;BMP180;30134;47.866;-4.222;2022-10-15T14:30:00;100880.00;;;27.00
44429;BMP180;30134;47.866;-4.222;2022-10-15T14:32:45;100881.00;;;27.00
44429;BMP180;30134;47.866;-4.222;2022-10-15T14:35:28;100872.00;;;27.00
44429;BMP180;30134;47.866;-4.222;2022-10-15T14:40:30;100873.00;;;27.00
44429;BMP180;30134;47.866;-4.222;2022-10-15T14:43:06;100878.00;;;27.10
44429;BMP180;30134;47.866;-4.222;2022-10-15T14:45:57;100879.00;;;27.00
44429;BMP180;30134;47.866;-4.222;2022-10-15T14:48:31;100874.00;;;27.10
44429;BMP180;30134;47.866;-4.222;2022-10-15T14:51:00;100885.00;;;27.10
44429;BMP180;30134;47.866;-4.222;2022-10-15T14:53:32;100888.00;;;27.10
44429;BMP180;30134;47.866;-4.222;2022-10-15T14:56:19;100876.00;;;27.10
44429;BMP180;30134;47.866;-4.222;2022-10-15T14:58:50;100872.00;;;27.10
44429;BMP180;30134;47.866;-4.222;2022-10-15T15:01:21;100869.00;;;27.10
44429;BMP180;30134;47.866;-4.222;2022-10-15T15:03:53;100869.00;;;27.10
44429;BMP180;30134;47.866;-4.222;2022-10-15T15:06:19;100879.00;;;27.10
44429;BMP180;30134;47.866;-4.222;2022-10-15T15:08:48;100869.00;;;27.10
44429;BMP180;30134;47.866;-4.222;2022-10-15T15:11:20;100875.00;;;27.10
44429;BMP180;30134;47.866;-4.222;2022-10-15T15:13:50;100872.00;;;27.10
44429;BMP180;30134;47.866;-4.222;2022-10-15T15:16:18;100880.00;;;27.10
44429;BMP180;30134;47.866;-4.222;2022-10-15T15:18:46;100874.00;;;27.10
44429;BMP180;30134;47.866;-4.222;2022-10-15T15:21:20;100877.00;;;27.10
44429;BMP180;30134;47.866;-4.222;2022-10-15T15:23:48;100872.00;;;27.10
44429;BMP180;30134;47.866;-4.222;2022-10-15T15:26:16;100860.00;;;27.10
44429;BMP180;30134;47.866;-4.222;2022-10-15T15:28:42;100869.00;;;27.10
44429;BMP180;30134;47.866;-4.222;2022-10-15T15:31:16;100872.00;;;27.10
44429;BMP180;30134;47.866;-4.222;2022-10-15T15:33:43;100870.00;;;27.10
44429;BMP180;30134;47.866;-4.222;2022-10-15T15:36:15;100863.00;;;27.10
44429;BMP180;30134;47.866;-4.222;2022-10-15T15:38:42;100863.00;;;27.20
44429;BMP180;30134;47.866;-4.222;2022-10-15T15:41:20;100879.00;;;27.20
44429;BMP180;30134;47.866;-4.222;2022-10-15T15:43:48;100870.00;;;27.20
44429;BMP180;30134;47.866;-4.222;2022-10-15T15:46:15;100881.00;;;27.20
44429;BMP180;30134;47.866;-4.222;2022-10-15T15:48:41;100868.00;;;27.20
44429;BMP180;30134;47.866;-4.222;2022-10-15T15:51:24;100876.00;;;27.20
44429;BMP180;30134;47.866;-4.222;2022-10-15T15:53:52;100871.00;;;27.20
44429;BMP180;30134;47.866;-4.222;2022-10-15T15:56:18;100873.00;;;27.20
44429;BMP180;30134;47.866;-4.222;2022-10-15T15:58:45;100865.00;;;27.20
44429;BMP180;30134;47.866;-4.222;2022-10-15T16:01:13;100866.00;;;27.20
44429;BMP180;30134;47.866;-4.222;2022-10-15T16:03:39;100861.00;;;27.20
44429;BMP180;30134;47.866;-4.222;2022-10-15T16:06:06;100862.00;;;27.20
44429;BMP180;30134;47.866;-4.222;2022-10-15T16:08:34;100859.00;;;27.20
44429;BMP180;30134;47.866;-4.222;2022-10-15T16:11:04;100850.00;;;27.20
44429;BMP180;30134;47.866;-4.222;2022-10-15T16:13:31;100854.00;;;27.20
44429;BMP180;30134;47.866;-4.222;2022-10-15T16:15:57;100849.00;;;27.20